Time;durP1;ratioP1;P1;durP2;ratioP2;P2;SDS_P1;SDS_P2;PMS_P1;PMS_P2;Temp;Humidity;BMP_temperature;BMP_pressure;BME280_temperature;BME280_humidity;BME280_pressure;Samples;Min_cycle;Max_cycle;Signal;HPM_P1;HPM_P2
2022/12/09 00:02:02;;;;;;;1.00;0.85;;;19.30;53.90;;;;;;6271867;28;20033;-67
2022/12/09 00:05:03;;;;;;;1.30;0.90;;;19.30;53.90;;;;;;6270582;28;20032;-68
2022/12/09 00:08:04;;;;;;;1.10;0.80;;;19.30;53.90;;;;;;6272165;28;20488;-67
2022/12/09 00:11:05;;;;;;;0.95;0.80;;;19.30;53.90;;;;;;6271737;28;20025;-68
2022/12/09 00:14:07;;;;;;;1.00;0.80;;;19.30;53.90;;;;;;6271127;28;20025;-68
2022/12/09 00:17:08;;;;;;;0.98;0.80;;;19.30;53.90;;;;;;6271418;28;20036;-68
2022/12/09 00:20:09;;;;;;;1.08;0.98;;;19.30;53.90;;;;;;6271418;28;20382;-68
2022/12/09 00:23:10;;;;;;;1.10;0.82;;;19.30;53.90;;;;;;6271824;28;20107;-68
2022/12/09 00:26:11;;;;;;;4.25;0.90;;;19.30;54.00;;;;;;6270288;28;20025;-67
2022/12/09 00:29:12;;;;;;;1.40;1.00;;;19.30;53.90;;;;;;6271430;28;20021;-68
2022/12/09 00:32:13;;;;;;;1.70;0.80;;;19.30;53.90;;;;;;6270084;28;20029;-68
2022/12/09 00:35:13;;;;;;;2.05;1.20;;;19.30;53.90;;;;;;6271280;28;20029;-68
2022/12/09 00:38:14;;;;;;;1.50;0.95;;;19.30;53.90;;;;;;6271286;28;20658;-68
2022/12/09 00:41:16;;;;;;;0.88;0.80;;;19.30;53.90;;;;;;6270936;28;20021;-68
2022/12/09 00:44:17;;;;;;;1.08;0.98;;;19.30;54.00;;;;;;6269886;28;20135;-67
2022/12/09 00:47:17;;;;;;;0.80;0.80;;;19.30;53.90;;;;;;6271041;28;20367;-68
2022/12/09 00:50:18;;;;;;;1.00;0.70;;;19.30;54.00;;;;;;6269477;28;20021;-68
2022/12/09 00:53:19;;;;;;;1.73;1.02;;;19.30;54.10;;;;;;6270671;28;20036;-68
2022/12/09 00:56:25;;;;;;;1.23;0.90;;;19.30;54.00;;;;;;6270722;28;20049;-68
2022/12/09 00:59:25;;;;;;;1.17;0.90;;;19.20;54.00;;;;;;6270975;28;20113;-68
2022/12/09 01:02:26;;;;;;;1.60;1.08;;;19.20;54.00;;;;;;6270449;28;20662;-68
2022/12/09 01:05:27;;;;;;;1.27;0.90;;;19.30;54.10;;;;;;6270881;28;20063;-68
2022/12/09 01:08:27;;;;;;;1.42;1.00;;;19.20;54.00;;;;;;6270369;28;20045;-68
2022/12/09 01:11:28;;;;;;;1.58;1.00;;;19.20;54.00;;;;;;6270421;28;20040;-68
2022/12/09 01:14:29;;;;;;;2.45;1.08;;;19.20;54.10;;;;;;6270224;28;20033;-68
2022/12/09 01:17:30;;;;;;;1.17;0.95;;;19.20;54.00;;;;;;6270515;28;20021;-68
2022/12/09 01:20:31;;;;;;;1.05;0.85;;;19.20;54.00;;;;;;6269850;28;20549;-68
2022/12/09 01:23:32;;;;;;;1.33;1.02;;;19.20;54.00;;;;;;6269578;28;20025;-68
2022/12/09 01:26:32;;;;;;;2.70;1.00;;;19.20;54.00;;;;;;6269652;28;20039;-68
2022/12/09 01:29:33;;;;;;;1.10;0.90;;;19.20;54.10;;;;;;6268770;28;20027;-68
2022/12/09 01:32:34;;;;;;;2.03;1.10;;;19.20;54.10;;;;;;6269929;28;20056;-68
2022/12/09 01:35:40;;;;;;;1.13;1.00;;;19.20;54.10;;;;;;6269890;28;20486;-68
2022/12/09 01:38:41;;;;;;;1.20;0.82;;;19.20;54.10;;;;;;6269697;28;20102;-68
2022/12/09 01:41:42;;;;;;;1.77;0.82;;;19.20;54.10;;;;;;6269658;28;20028;-68
2022/12/09 01:45:29;;;;;;;1.10;0.95;;;19.20;54.10;;;;;;6269734;28;20021;-68
2022/12/09 01:48:51;;;;;;;1.38;0.95;;;19.20;54.00;;;;;;6269755;28;20579;-68
2022/12/09 01:52:22;;;;;;;0.93;0.82;;;19.20;54.00;;;;;;6269378;28;20025;-68
2022/12/09 01:55:23;;;;;;;1.50;1.20;;;19.20;54.10;;;;;;6267878;28;20049;-68
2022/12/09 01:58:24;;;;;;;0.98;0.85;;;19.20;54.10;;;;;;6268172;28;20140;-68
2022/12/09 02:01:25;;;;;;;1.30;1.10;;;19.20;54.10;;;;;;6269124;28;20048;-68
2022/12/09 02:04:33;;;;;;;2.03;1.00;;;19.20;54.10;;;;;;6269354;28;20504;-68
2022/12/09 02:07:33;;;;;;;1.02;0.73;;;19.20;54.10;;;;;;6269488;28;20102;-68
2022/12/09 02:10:42;;;;;;;1.42;1.13;;;19.20;54.10;;;;;;6269055;28;20478;-68
2022/12/09 02:13:58;;;;;;;1.13;0.80;;;19.20;54.10;;;;;;6267872;28;20021;-68
2022/12/09 02:17:09;;;;;;;1.00;0.80;;;19.20;54.10;;;;;;6269107;28;20049;-68
2022/12/09 02:20:29;;;;;;;1.05;0.90;;;19.20;54.10;;;;;;6269478;28;20435;-68
2022/12/09 02:23:44;;;;;;;1.20;0.88;;;19.20;54.10;;;;;;6267848;28;20107;-68
2022/12/09 02:27:04;;;;;;;1.08;0.80;;;19.20;54.10;;;;;;6269093;28;20476;-68
2022/12/09 02:30:11;;;;;;;0.90;0.80;;;19.20;54.10;;;;;;6268942;28;20032;-68
2022/12/09 02:33:33;;;;;;;0.80;0.65;;;19.20;54.10;;;;;;6268970;28;20033;-68
2022/12/09 02:36:45;;;;;;;1.38;0.88;;;19.20;54.10;;;;;;6270628;28;20394;-68
2022/12/09 02:40:01;;;;;;;0.95;0.73;;;19.20;54.10;;;;;;6274205;28;20552;-68
2022/12/09 02:43:05;;;;;;;1.17;0.90;;;19.20;54.10;;;;;;6272448;28;20029;-68
2022/12/09 02:46:09;;;;;;;0.70;0.60;;;19.20;54.20;;;;;;6273817;28;20029;-68
2022/12/09 02:49:13;;;;;;;1.58;1.00;;;19.20;54.20;;;;;;6273837;28;20048;-68
2022/12/09 02:52:14;;;;;;;1.33;0.95;;;19.20;54.10;;;;;;6273959;28;20108;-68
2022/12/09 02:55:16;;;;;;;1.05;0.80;;;19.20;54.10;;;;;;6273344;28;20045;-68
2022/12/09 02:58:17;;;;;;;1.23;0.90;;;19.20;54.20;;;;;;6273933;28;20126;-68
2022/12/09 03:01:23;;;;;;;0.80;0.68;;;19.10;54.10;;;;;;6273338;28;20032;-68
2022/12/09 03:04:27;;;;;;;1.10;0.80;;;19.20;54.20;;;;;;6273449;28;20052;-67
2022/12/09 03:07:33;;;;;;;2.25;1.02;;;19.20;54.20;;;;;;6273154;28;20123;-68
2022/12/09 03:10:51;;;;;;;1.17;0.82;;;19.10;54.10;;;;;;6272155;28;20112;-68
2022/12/09 03:14:13;;;;;;;0.77;0.65;;;19.20;54.20;;;;;;6273488;28;20546;-67
2022/12/09 03:17:19;;;;;;;1.48;0.63;;;19.10;54.10;;;;;;6271658;28;20440;-68
2022/12/09 03:20:25;;;;;;;1.17;0.95;;;19.10;54.10;;;;;;6273204;28;20032;-67
2022/12/09 03:23:28;;;;;;;0.88;0.77;;;19.20;54.20;;;;;;6273018;28;20035;-68
2022/12/09 03:26:32;;;;;;;1.58;1.08;;;19.20;54.20;;;;;;6272807;28;20382;-68
2022/12/09 03:29:37;;;;;;;2.33;1.00;;;19.10;54.10;;;;;;6273022;28;20021;-68
2022/12/09 03:32:40;;;;;;;1.17;0.80;;;19.10;54.10;;;;;;6271369;28;20394;-68
2022/12/09 03:35:44;;;;;;;0.80;0.65;;;19.20;54.20;;;;;;6271276;28;20029;-68
2022/12/09 03:38:48;;;;;;;1.20;0.90;;;19.10;54.10;;;;;;6272571;28;20029;-68
2022/12/09 03:41:54;;;;;;;1.13;0.93;;;19.10;54.10;;;;;;6272677;28;20474;-68
2022/12/09 03:44:59;;;;;;;1.00;0.90;;;19.10;54.10;;;;;;6272597;28;20028;-68
2022/12/09 03:48:01;;;;;;;0.93;0.80;;;19.10;54.10;;;;;;6271284;28;20021;-68
2022/12/09 03:51:11;;;;;;;0.93;0.82;;;19.10;54.10;;;;;;6272434;28;20025;-68
2022/12/09 03:54:14;;;;;;;1.23;0.90;;;19.10;54.10;;;;;;6272028;28;20435;-68
2022/12/09 03:57:17;;;;;;;0.95;0.85;;;19.10;54.10;;;;;;6272031;28;20501;-67
2022/12/09 04:00:18;;;;;;;1.08;0.80;;;19.10;54.10;;;;;;6272370;28;20488;-68
2022/12/09 04:03:20;;;;;;;2.67;1.13;;;19.10;54.10;;;;;;6272125;28;20052;-68
2022/12/09 04:06:21;;;;;;;2.90;0.88;;;19.10;54.10;;;;;;6271990;28;20021;-68
2022/12/09 04:09:22;;;;;;;1.95;1.00;;;19.10;54.10;;;;;;6270660;28;20130;-68
2022/12/09 04:12:23;;;;;;;1.55;0.95;;;19.10;54.10;;;;;;6270537;28;20032;-68
2022/12/09 04:15:23;;;;;;;2.05;1.25;;;19.10;54.10;;;;;;6271876;28;20021;-68
2022/12/09 04:18:24;;;;;;;1.75;0.98;;;19.10;54.10;;;;;;6271684;28;20024;-68
2022/12/09 04:21:25;;;;;;;2.40;1.20;;;19.10;54.10;;;;;;6272068;28;20082;-68
2022/12/09 04:24:26;;;;;;;3.03;1.20;;;19.10;54.10;;;;;;6271692;28;20025;-68
2022/12/09 04:27:26;;;;;;;4.63;1.73;;;19.10;54.10;;;;;;6272141;28;20413;-68
2022/12/09 04:30:27;;;;;;;4.25;1.65;;;19.10;54.10;;;;;;6270256;28;20490;-68
2022/12/09 04:33:28;;;;;;;6.10;1.40;;;19.10;54.10;;;;;;6271895;28;20017;-68
2022/12/09 04:36:29;;;;;;;7.00;1.50;;;19.10;54.20;;;;;;6271361;28;20028;-68
2022/12/09 04:39:30;;;;;;;6.68;1.95;;;19.10;54.10;;;;;;6271393;28;20382;-68
2022/12/09 04:42:30;;;;;;;8.50;1.92;;;19.10;54.10;;;;;;6271045;28;20029;-67
2022/12/09 04:45:31;;;;;;;6.43;1.90;;;19.10;54.10;;;;;;6271259;28;20049;-68
2022/12/09 04:48:32;;;;;;;8.90;2.38;;;19.10;54.10;;;;;;6271276;28;20028;-68
2022/12/09 04:51:33;;;;;;;10.45;2.10;;;19.10;54.20;;;;;;6269688;28;20433;-68
2022/12/09 04:54:34;;;;;;;9.30;2.05;;;19.10;54.20;;;;;;6270993;28;20049;-68
2022/12/09 04:57:35;;;;;;;11.55;2.08;;;19.10;54.20;;;;;;6270573;28;20611;-68
2022/12/09 05:00:44;;;;;;;10.57;2.28;;;19.10;54.10;;;;;;6270494;28;20056;-68
2022/12/09 05:03:50;;;;;;;9.43;2.70;;;19.10;54.20;;;;;;6269458;28;20492;-68
2022/12/09 05:06:52;;;;;;;11.10;2.47;;;19.10;54.10;;;;;;6270999;28;20045;-68
2022/12/09 05:09:53;;;;;;;8.90;2.10;;;19.10;54.10;;;;;;6269248;28;20013;-68
2022/12/09 05:12:53;;;;;;;9.23;2.28;;;19.10;54.10;;;;;;6270893;28;20025;-67
2022/12/09 05:16:03;;;;;;;7.90;1.80;;;19.10;54.10;;;;;;6270407;28;20021;-68
2022/12/09 05:19:03;;;;;;;7.72;2.25;;;19.10;54.10;;;;;;6270538;28;20021;-68
2022/12/09 05:22:04;;;;;;;10.02;2.55;;;19.20;54.10;;;;;;6270171;28;20443;-68
2022/12/09 05:25:05;;;;;;;7.97;2.20;;;19.20;54.10;;;;;;6270619;28;20390;-67
2022/12/09 05:28:06;;;;;;;8.93;2.10;;;19.20;54.10;;;;;;6270117;28;20395;-68
2022/12/09 05:31:10;;;;;;;7.45;2.55;;;19.20;54.10;;;;;;6270076;28;20040;-68
2022/12/09 05:34:10;;;;;;;14.68;3.05;;;19.20;54.10;;;;;;6270321;28;20578;-67
2022/12/09 05:37:14;;;;;;;12.23;2.83;;;19.20;54.40;;;;;;6269748;28;20025;-67
2022/12/09 05:40:15;;;;;;;8.75;2.53;;;19.20;54.60;;;;;;6270010;28;20029;-68
2022/12/09 05:43:16;;;;;;;8.35;3.22;;;19.20;54.80;;;;;;6269812;28;20040;-68
2022/12/09 05:46:18;;;;;;;12.43;3.25;;;19.20;54.90;;;;;;6269896;28;20021;-68
2022/12/09 05:49:19;;;;;;;6.93;2.58;;;19.20;54.90;;;;;;6268674;28;20086;-68
2022/12/09 05:52:20;;;;;;;9.48;2.70;;;19.20;54.90;;;;;;6268335;28;20482;-68
2022/12/09 05:55:21;;;;;;;7.93;2.50;;;19.20;54.80;;;;;;6269577;28;20048;-69
2022/12/09 05:58:22;;;;;;;8.98;2.60;;;19.20;54.80;;;;;;6268293;28;20032;-68
2022/12/09 06:01:24;;;;;;;8.88;2.30;;;19.20;54.70;;;;;;6269156;28;20033;-67
2022/12/09 06:04:25;;;;;;;6.97;2.20;;;19.20;54.60;;;;;;6269685;28;20017;-68
2022/12/09 06:07:25;;;;;;;6.20;2.45;;;19.20;54.60;;;;;;6269486;28;20402;-68
2022/12/09 06:10:26;;;;;;;8.93;2.38;;;19.20;54.60;;;;;;6267670;28;20493;-68
2022/12/09 06:13:27;;;;;;;6.53;2.35;;;19.20;54.60;;;;;;6269453;28;20024;-68
2022/12/09 06:16:28;;;;;;;6.53;2.20;;;19.20;54.60;;;;;;6268016;28;20397;-68
2022/12/09 06:19:29;;;;;;;4.60;2.05;;;19.20;54.50;;;;;;6269095;28;20029;-68
2022/12/09 06:22:29;;;;;;;6.63;2.55;;;19.20;54.50;;;;;;6269086;28;20100;-68
2022/12/09 06:25:30;;;;;;;5.57;1.75;;;19.20;54.40;;;;;;6269391;28;20025;-68
2022/12/09 06:28:31;;;;;;;4.97;2.08;;;19.20;54.40;;;;;;6267779;28;20135;-68
2022/12/09 06:31:32;;;;;;;7.53;2.20;;;19.20;54.40;;;;;;6267747;28;20033;-68
2022/12/09 06:34:33;;;;;;;5.90;1.92;;;19.20;54.40;;;;;;6269263;28;20033;-67
2022/12/09 06:37:33;;;;;;;4.85;1.98;;;19.20;54.40;;;;;;6267793;28;20571;-68
2022/12/09 06:40:39;;;;;;;4.63;1.80;;;19.20;54.40;;;;;;6269155;28;20021;-68
2022/12/09 06:43:40;;;;;;;3.70;1.70;;;19.20;54.30;;;;;;6268919;28;20040;-68
2022/12/09 06:46:41;;;;;;;5.03;2.28;;;19.20;54.30;;;;;;6269272;28;20127;-68
2022/12/09 06:49:41;;;;;;;4.30;1.88;;;19.20;54.30;;;;;;6267454;28;20021;-68
2022/12/09 06:52:42;;;;;;;4.03;1.67;;;19.20;54.30;;;;;;6268894;28;20382;-68
2022/12/09 06:55:43;;;;;;;3.45;1.60;;;19.20;54.30;;;;;;6268955;28;20132;-68
2022/12/09 06:58:45;;;;;;;5.40;1.88;;;19.20;54.30;;;;;;6267740;28;20031;-67
2022/12/09 07:01:46;;;;;;;6.35;2.30;;;19.20;54.30;;;;;;6270866;28;20112;-68
2022/12/09 07:04:50;;;;;;;4.80;2.05;;;19.20;54.30;;;;;;6270790;28;20043;-68
2022/12/09 07:07:51;;;;;;;3.25;1.65;;;19.20;54.20;;;;;;6270862;28;20021;-68
2022/12/09 07:10:52;;;;;;;3.30;1.40;;;19.20;54.20;;;;;;6270646;28;20029;-68
2022/12/09 07:13:53;;;;;;;2.70;1.70;;;19.20;54.30;;;;;;6270975;28;20029;-68
2022/12/09 07:16:54;;;;;;;4.95;1.70;;;19.20;54.20;;;;;;6270609;28;20467;-68
2022/12/09 07:19:54;;;;;;;4.72;1.73;;;19.20;54.20;;;;;;6269633;28;20447;-68
2022/12/09 07:22:55;;;;;;;4.15;1.80;;;19.20;54.20;;;;;;6273647;28;20428;-67
2022/12/09 07:25:56;;;;;;;2.17;1.42;;;19.20;54.20;;;;;;6275686;28;20437;-68
2022/12/09 07:28:57;;;;;;;4.47;1.67;;;19.20;54.10;;;;;;6273689;28;20028;-68
2022/12/09 07:31:58;;;;;;;4.40;1.90;;;19.20;54.10;;;;;;6275177;28;20390;-67
2022/12/09 07:34:58;;;;;;;3.40;1.80;;;19.20;54.10;;;;;;6275068;28;20072;-68
2022/12/09 07:37:59;;;;;;;4.20;1.60;;;19.20;54.10;;;;;;6275106;28;20024;-68
2022/12/09 07:41:07;;;;;;;3.63;1.70;;;19.20;54.10;;;;;;6274735;28;20098;-68
2022/12/09 07:44:10;;;;;;;4.22;1.90;;;19.20;54.10;;;;;;6275084;28;20024;-68
2022/12/09 07:47:10;;;;;;;3.17;1.55;;;19.20;54.10;;;;;;6271881;28;20025;-69
2022/12/09 07:50:11;;;;;;;4.60;1.80;;;19.20;54.10;;;;;;6273390;28;20389;-69
2022/12/09 07:53:12;;;;;;;2.85;1.70;;;19.20;54.00;;;;;;6272095;28;20074;-69
2022/12/09 07:56:15;;;;;;;2.45;1.50;;;19.20;54.00;;;;;;6274289;28;20053;-69
2022/12/09 07:59:16;;;;;;;4.25;1.63;;;19.20;54.00;;;;;;6273928;28;20033;-70
2022/12/09 08:02:16;;;;;;;4.25;2.00;;;19.20;54.00;;;;;;6274165;28;20036;-70
2022/12/09 08:05:17;;;;;;;4.13;1.80;;;19.20;54.10;;;;;;6272627;28;20028;-69
2022/12/09 08:08:18;;;;;;;3.25;1.73;;;19.30;54.10;;;;;;6274129;28;20031;-70
2022/12/09 08:11:22;;;;;;;7.20;1.80;;;19.30;54.10;;;;;;6273829;28;20025;-70
2022/12/09 08:14:23;;;;;;;5.17;1.80;;;19.30;54.10;;;;;;6270037;28;20035;-68
2022/12/09 08:17:25;;;;;;;4.38;1.42;;;19.30;54.20;;;;;;6272305;28;20033;-70
2022/12/09 08:20:26;;;;;;;3.53;1.67;;;19.30;54.20;;;;;;6273635;28;20366;-69
2022/12/09 08:23:27;;;;;;;4.15;2.08;;;19.30;54.30;;;;;;6273455;28;20033;-69
2022/12/09 08:26:30;;;;;;;5.43;1.90;;;19.30;54.30;;;;;;6270369;28;20052;-69
2022/12/09 08:29:31;;;;;;;2.95;1.75;;;19.30;54.30;;;;;;6272044;28;20489;-70
2022/12/09 08:32:31;;;;;;;5.75;1.80;;;19.30;54.30;;;;;;6285206;28;20105;-69
2022/12/09 08:35:32;;;;;;;3.20;1.60;;;19.20;54.20;;;;;;6296738;28;20044;-69
2022/12/09 08:38:33;;;;;;;3.28;1.50;;;19.30;54.40;;;;;;6298237;28;20026;-70
2022/12/09 08:41:35;;;;;;;5.88;1.90;;;19.30;54.40;;;;;;6296861;28;20429;-69
2022/12/09 08:44:38;;;;;;;6.20;1.92;;;19.30;54.40;;;;;;6298058;28;20031;-69
2022/12/09 08:47:38;;;;;;;2.85;1.60;;;19.30;54.40;;;;;;6296966;28;20401;-69
2022/12/09 08:50:39;;;;;;;2.90;1.65;;;19.30;54.40;;;;;;6298020;28;20024;-69
2022/12/09 08:53:40;;;;;;;3.35;1.75;;;19.20;54.30;;;;;;6298218;28;20493;-70
2022/12/09 08:56:45;;;;;;;3.72;1.85;;;19.20;54.30;;;;;;6297536;28;20048;-69
2022/12/09 08:59:46;;;;;;;3.65;2.08;;;19.20;54.20;;;;;;6297968;28;20024;-69
2022/12/09 09:02:47;;;;;;;4.75;2.03;;;19.20;54.20;;;;;;6296407;28;20028;-69
2022/12/09 09:05:47;;;;;;;2.50;1.60;;;19.20;54.20;;;;;;6297833;28;20538;-69
2022/12/09 09:08:48;;;;;;;3.75;1.67;;;19.20;54.20;;;;;;6285151;28;20512;-69
2022/12/09 09:11:49;;;;;;;3.00;1.70;;;19.20;54.20;;;;;;6271788;28;20029;-69
2022/12/09 09:14:51;;;;;;;4.75;1.90;;;19.20;54.20;;;;;;6273131;28;20502;-69
2022/12/09 09:17:52;;;;;;;3.00;1.73;;;19.20;54.20;;;;;;6268291;28;20078;-70
2022/12/09 09:20:57;;;;;;;3.65;1.92;;;19.20;54.20;;;;;;6271854;28;20055;-69
2022/12/09 09:23:58;;;;;;;6.57;2.00;;;19.20;54.10;;;;;;6272055;28;20103;-70
2022/12/09 09:26:59;;;;;;;4.10;2.10;;;19.20;54.10;;;;;;6271901;28;20092;-69
2022/12/09 09:30:00;;;;;;;4.15;2.30;;;19.20;54.10;;;;;;6270322;28;20117;-69
2022/12/09 09:33:00;;;;;;;3.83;2.10;;;19.20;54.10;;;;;;6271783;28;20021;-68
2022/12/09 09:36:03;;;;;;;6.38;1.92;;;19.20;54.10;;;;;;6271621;28;20102;-69
2022/12/09 09:39:04;;;;;;;5.97;2.00;;;19.20;54.20;;;;;;6270068;28;20028;-69
2022/12/09 09:42:11;;;;;;;4.93;2.00;;;19.20;54.20;;;;;;6269833;28;20024;-71
2022/12/09 09:45:17;;;;;;;6.72;1.92;;;19.20;54.20;;;;;;6286307;28;20028;-69
2022/12/09 09:48:22;;;;;;;8.30;4.55;;;19.20;54.40;;;;;;6279465;28;20020;-70
2022/12/09 09:51:23;;;;;;;11.15;6.65;;;19.20;53.60;;;;;;6246623;28;20026;-69
2022/12/09 09:54:24;;;;;;;10.95;5.97;;;19.20;52.60;;;;;;6254769;28;20044;-69
2022/12/09 09:57:39;;;;;;;8.52;5.25;;;19.20;52.40;;;;;;6269897;28;20025;-70
2022/12/09 10:00:59;;;;;;;10.55;4.97;;;19.20;52.80;;;;;;6269621;28;20067;-68
2022/12/09 10:04:15;;;;;;;14.23;5.07;;;19.20;52.90;;;;;;6271962;28;20036;-70
2022/12/09 10:07:26;;;;;;;15.30;9.75;;;19.20;53.30;;;;;;6294835;28;20157;-71
2022/12/09 10:10:52;;;;;;;13.27;9.43;;;19.20;51.40;;;;;;6279405;28;20060;-70
2022/12/09 10:14:11;;;;;;;18.35;11.75;;;19.20;50.00;;;;;;6261034;28;20030;-70
2022/12/09 10:17:23;;;;;;;18.23;9.80;;;19.20;50.20;;;;;;6269600;28;20032;-69
2022/12/09 10:20:29;;;;;;;11.40;8.85;;;19.20;49.80;;;;;;6268318;28;20025;-70
2022/12/09 10:23:32;;;;;;;12.60;7.75;;;19.20;50.40;;;;;;6272477;28;20393;-70
2022/12/09 10:26:32;;;;;;;13.38;7.88;;;19.20;51.00;;;;;;6258974;28;20102;-70
2022/12/09 10:30:01;;;;;;;14.15;7.80;;;19.20;51.30;;;;;;6268542;28;20100;-70
2022/12/09 10:33:02;;;;;;;10.20;6.82;;;19.10;51.30;;;;;;6267036;28;20064;-70
2022/12/09 10:36:04;;;;;;;13.15;6.88;;;19.20;51.60;;;;;;6268938;28;20017;-70
2022/12/09 10:39:05;;;;;;;9.57;6.47;;;19.20;51.70;;;;;;6269039;28;20061;-70
2022/12/09 10:45:27;;;;;;;9.23;6.28;;;19.20;51.80;;;;;;6274032;28;20422;-70
2022/12/09 10:48:41;;;;;;;9.13;6.03;;;19.20;51.90;;;;;;6270217;28;20060;-69
2022/12/09 10:51:48;;;;;;;8.75;5.95;;;19.20;52.00;;;;;;6268605;28;20033;-70
2022/12/09 10:54:48;;;;;;;7.90;5.70;;;19.20;52.00;;;;;;6268926;28;20048;-71
2022/12/09 10:57:49;;;;;;;8.55;5.32;;;19.20;52.00;;;;;;6270878;28;20055;-70
2022/12/09 11:01:09;;;;;;;10.13;5.85;;;19.20;52.00;;;;;;6277655;28;20032;-70
2022/12/09 11:04:13;;;;;;;6.72;5.10;;;19.20;52.10;;;;;;6248380;28;20425;-70
2022/12/09 11:07:22;;;;;;;7.10;5.30;;;19.20;52.10;;;;;;6265338;28;20032;-70
2022/12/09 11:10:25;;;;;;;7.82;5.60;;;19.20;52.20;;;;;;6272398;28;20104;-70
2022/12/09 11:13:37;;;;;;;7.25;5.22;;;19.20;52.10;;;;;;6275437;28;20621;-69
2022/12/09 11:16:38;;;;;;;7.65;5.57;;;19.20;52.30;;;;;;6259599;28;20466;-70
2022/12/09 11:19:39;;;;;;;7.47;5.47;;;19.20;52.50;;;;;;6248788;28;20032;-70
2022/12/09 11:22:42;;;;;;;12.75;6.65;;;19.20;51.90;;;;;;6281125;28;20116;-71
2022/12/09 11:25:58;;;;;;;10.63;6.90;;;19.20;51.00;;;;;;6272097;28;20029;-70
2022/12/09 11:29:12;;;;;;;11.05;5.95;;;19.20;50.90;;;;;;6271508;28;20025;-71
2022/12/09 11:32:13;;;;;;;8.30;5.63;;;19.20;51.50;;;;;;6271604;28;20100;-70
2022/12/09 11:35:19;;;;;;;8.20;5.40;;;19.20;51.70;;;;;;6272568;28;20028;-70
2022/12/09 11:38:39;;;;;;;7.03;4.90;;;19.20;51.80;;;;;;6270141;28;20921;-70
2022/12/09 11:45:21;;;;;;;6.47;5.05;;;19.20;52.70;;;;;;6273099;28;20025;-71
2022/12/09 11:48:30;;;;;;;6.15;4.93;;;19.20;52.00;;;;;;6272894;28;20025;-71
2022/12/09 11:51:38;;;;;;;8.80;5.60;;;19.20;52.10;;;;;;6249864;28;20430;-71
2022/12/09 11:54:57;;;;;;;11.80;4.95;;;19.20;52.10;;;;;;6293246;28;20044;-70
2022/12/09 11:58:05;;;;;;;7.38;4.55;;;19.20;52.20;;;;;;6246254;28;20036;-71
2022/12/09 12:01:25;;;;;;;6.85;4.53;;;19.20;52.20;;;;;;6260520;28;20033;-71
2022/12/09 12:04:38;;;;;;;5.35;4.18;;;19.20;52.40;;;;;;6274687;28;20021;-69
2022/12/09 12:07:51;;;;;;;8.70;4.65;;;19.20;52.40;;;;;;6298299;28;20025;-68
2022/12/09 12:10:59;;;;;;;6.60;4.80;;;19.20;52.50;;;;;;6285503;28;20096;-68
2022/12/09 12:14:12;;;;;;;15.40;5.18;;;19.20;52.60;;;;;;6272801;28;20100;-69
2022/12/09 12:17:35;;;;;;;8.98;4.28;;;19.20;52.10;;;;;;6271130;28;20065;-71
2022/12/09 12:21:17;;;;;;;10.65;4.80;;;19.20;52.10;;;;;;6272240;28;20071;-70
2022/12/09 12:24:42;;;;;;;8.30;5.00;;;19.20;52.10;;;;;;6246006;28;20038;-72
2022/12/09 12:28:24;;;;;;;9.25;4.90;;;19.20;52.20;;;;;;6268687;28;20021;-71
2022/12/09 12:31:31;;;;;;;6.93;4.63;;;19.20;52.20;;;;;;6248359;28;20076;-70
2022/12/09 12:34:48;;;;;;;7.65;5.00;;;19.20;52.20;;;;;;6272024;28;20029;-70
2022/12/09 12:37:51;;;;;;;8.43;4.35;;;19.20;52.30;;;;;;6275649;28;20029;-70
2022/12/09 12:41:07;;;;;;;8.27;4.30;;;19.20;52.30;;;;;;6269875;28;20409;-71
2022/12/09 12:47:50;;;;;;;7.53;4.40;;;19.20;52.40;;;;;;6272237;28;20036;-71
2022/12/09 12:50:53;;;;;;;8.45;4.25;;;19.20;52.40;;;;;;6269650;28;20502;-71
2022/12/09 12:54:32;;;;;;;7.82;4.50;;;19.20;52.50;;;;;;6269114;28;20045;-71
2022/12/09 12:57:41;;;;;;;8.68;4.82;;;19.20;52.50;;;;;;6269010;28;20044;-71
2022/12/09 13:00:55;;;;;;;10.23;4.93;;;19.20;52.60;;;;;;6269838;28;20078;-71
2022/12/09 13:04:19;;;;;;;6.40;4.50;;;19.20;52.70;;;;;;6270008;28;20494;-71
2022/12/09 13:07:43;;;;;;;9.05;4.22;;;19.20;52.80;;;;;;6283890;28;20040;-70
2022/12/09 13:10:50;;;;;;;8.45;4.75;;;19.20;52.80;;;;;;6285328;28;20025;-71
2022/12/09 13:13:54;;;;;;;6.45;4.45;;;19.20;53.50;;;;;;6294522;28;20064;-70
2022/12/09 13:16:55;;;;;;;4.97;3.60;;;19.20;52.70;;;;;;6293334;28;20025;-71
2022/12/09 13:19:59;;;;;;;5.53;3.92;;;19.20;52.80;;;;;;6294456;28;20101;-71
2022/12/09 13:23:06;;;;;;;6.10;4.47;;;19.20;52.70;;;;;;6275595;28;20374;-70
2022/12/09 13:26:22;;;;;;;7.68;4.38;;;19.20;52.80;;;;;;6267983;28;20025;-71
2022/12/09 13:29:47;;;;;;;6.18;4.18;;;19.20;53.50;;;;;;6269807;28;20017;-73
2022/12/09 13:32:54;;;;;;;6.43;4.18;;;19.20;52.80;;;;;;6269280;28;20056;-70
2022/12/09 13:35:54;;;;;;;5.72;4.00;;;19.20;52.90;;;;;;6269524;28;20059;-70
2022/12/09 13:38:55;;;;;;;5.25;3.88;;;19.20;52.80;;;;;;6269334;28;20040;-71
2022/12/09 13:45:17;;;;;;;5.95;3.97;;;19.20;52.90;;;;;;6253675;28;20415;-71
2022/12/09 13:48:18;;;;;;;6.47;3.92;;;19.20;52.80;;;;;;6277056;28;20013;-71
2022/12/09 13:51:20;;;;;;;6.60;4.40;;;19.20;52.90;;;;;;6281507;28;20029;-70
2022/12/09 13:54:28;;;;;;;5.35;3.35;;;19.20;52.90;;;;;;6286025;28;20091;-70
2022/12/09 13:57:46;;;;;;;4.80;3.83;;;19.20;52.90;;;;;;6267802;28;20025;-70
2022/12/09 14:01:01;;;;;;;4.47;3.53;;;19.20;52.90;;;;;;6267693;28;20462;-70
2022/12/09 14:04:17;;;;;;;5.75;3.90;;;19.20;52.90;;;;;;6289582;28;20074;-71
2022/12/09 14:07:47;;;;;;;4.30;3.38;;;19.20;52.90;;;;;;6249731;28;20094;-70
2022/12/09 14:10:50;;;;;;;5.20;3.55;;;19.20;52.90;;;;;;6268716;28;20029;-69
2022/12/09 14:14:26;;;;;;;4.80;3.92;;;19.20;52.90;;;;;;6268923;28;20613;-70
2022/12/09 14:17:30;;;;;;;4.40;3.55;;;19.20;53.00;;;;;;6273908;28;20028;-69
2022/12/09 14:20:34;;;;;;;4.75;3.65;;;19.20;53.00;;;;;;6282454;28;20493;-69
2022/12/09 14:23:34;;;;;;;7.55;3.72;;;19.20;52.90;;;;;;6268879;28;20048;-72
2022/12/09 14:26:38;;;;;;;4.72;3.42;;;19.20;52.90;;;;;;6293400;28;20367;-72
2022/12/09 14:29:50;;;;;;;4.97;3.55;;;19.20;52.90;;;;;;6275220;28;20025;-70
2022/12/09 14:32:55;;;;;;;3.65;3.15;;;19.20;52.90;;;;;;6274852;28;20598;-70
2022/12/09 14:36:02;;;;;;;5.10;3.20;;;19.20;52.90;;;;;;6298620;28;20020;-71
2022/12/09 14:39:27;;;;;;;5.43;3.22;;;19.20;52.90;;;;;;6296484;28;20134;-69
2022/12/09 14:42:34;;;;;;;5.20;3.25;;;19.20;52.90;;;;;;6273387;28;20079;-70
2022/12/09 14:45:53;;;;;;;4.18;3.13;;;19.20;52.90;;;;;;6278621;28;20080;-70
2022/12/09 14:49:23;;;;;;;5.32;3.15;;;19.20;52.90;;;;;;6273709;28;20458;-70
2022/12/09 14:52:29;;;;;;;6.18;3.17;;;19.20;52.90;;;;;;6272367;28;20032;-70
2022/12/09 14:55:36;;;;;;;7.53;3.45;;;19.20;52.90;;;;;;6276467;28;20391;-71
2022/12/09 14:58:37;;;;;;;5.60;3.10;;;19.20;52.90;;;;;;6273461;28;20049;-70
2022/12/09 15:01:51;;;;;;;5.25;3.22;;;19.20;52.90;;;;;;6271768;28;20075;-70
2022/12/09 15:04:53;;;;;;;5.83;3.33;;;19.20;52.90;;;;;;6272977;28;20119;-70
2022/12/09 15:07:54;;;;;;;5.05;3.50;;;19.20;52.90;;;;;;6272773;28;20790;-70
2022/12/09 15:10:55;;;;;;;7.10;3.00;;;19.20;52.90;;;;;;6271665;28;20059;-72
2022/12/09 15:14:25;;;;;;;3.95;2.80;;;19.20;53.00;;;;;;6273110;28;20025;-71
2022/12/09 15:17:31;;;;;;;3.88;3.08;;;19.20;52.90;;;;;;6259973;28;20106;-71
2022/12/09 15:20:34;;;;;;;4.32;3.15;;;19.20;52.80;;;;;;6283462;28;20581;-70
2022/12/09 15:23:38;;;;;;;7.50;2.95;;;19.20;53.00;;;;;;6287477;28;20538;-70
2022/12/09 15:26:39;;;;;;;6.60;3.10;;;19.20;52.90;;;;;;6272136;28;20378;-70
2022/12/09 15:29:40;;;;;;;4.43;3.03;;;19.20;52.90;;;;;;6272196;28;20029;-70
2022/12/09 15:32:43;;;;;;;4.65;3.15;;;19.20;53.00;;;;;;6272493;28;20108;-70
2022/12/09 15:36:01;;;;;;;4.75;3.08;;;19.20;52.90;;;;;;6272472;28;20032;-70
2022/12/09 15:39:06;;;;;;;6.07;2.65;;;19.20;53.00;;;;;;6275791;28;20500;-70
2022/12/09 15:42:09;;;;;;;;;;;19.20;52.90;;;;;;6297466;28;20537;-70
2022/12/09 15:45:20;;;;;;;3.22;2.75;;;19.20;52.90;;;;;;6277948;28;19920;-70
2022/12/09 15:48:26;;;;;;;3.83;2.80;;;19.20;53.00;;;;;;6271907;28;20058;-70
2022/12/09 15:51:28;;;;;;;4.38;2.80;;;19.20;52.90;;;;;;6272069;28;20096;-73
2022/12/09 15:54:34;;;;;;;3.63;2.80;;;19.20;53.00;;;;;;6275304;28;20052;-70
2022/12/09 15:57:35;;;;;;;3.08;2.63;;;19.20;52.90;;;;;;6283760;28;20050;-68
2022/12/09 16:00:40;;;;;;;4.55;2.83;;;19.20;53.00;;;;;;6270156;28;20082;-70
2022/12/09 16:03:40;;;;;;;3.75;2.80;;;19.20;53.10;;;;;;6271835;28;20382;-70
2022/12/09 16:06:41;;;;;;;3.70;2.58;;;19.20;53.00;;;;;;6271334;28;20047;-70
2022/12/09 16:09:59;;;;;;;3.38;2.70;;;19.20;53.00;;;;;;6267367;28;20025;-71
2022/12/09 16:13:08;;;;;;;4.63;2.47;;;19.20;53.00;;;;;;6270607;28;20398;-70
2022/12/09 16:16:25;;;;;;;4.45;2.30;;;19.20;53.00;;;;;;6286139;28;20027;-70
2022/12/09 16:19:35;;;;;;;4.07;2.42;;;19.20;53.00;;;;;;6295363;28;20463;-71